createdAt,value
2019-05-19T00:00:27.027Z,9.78
2019-05-19T00:02:57.423Z,10.60
2019-05-19T00:05:28.542Z,10.17
2019-05-19T00:07:58.891Z,9.63
2019-05-19T00:10:30.095Z,10.03
2019-05-19T00:13:00.348Z,10.40
2019-05-19T00:15:30.863Z,9.70
2019-05-19T00:18:01.853Z,10.30
2019-05-19T00:20:32.058Z,9.40
2019-05-19T00:23:02.381Z,10.10
2019-05-19T00:25:33.525Z,10.03
2019-05-19T00:28:04.073Z,9.60
2019-05-19T00:30:36.121Z,9.67
2019-05-19T00:33:06.644Z,10.70
2019-05-19T00:35:37.021Z,9.87
2019-05-19T00:38:07.493Z,9.57
2019-05-19T00:40:38.764Z,10.03
2019-05-19T00:43:10.133Z,9.30
2019-05-19T00:45:41.611Z,10.40
2019-05-19T00:48:13.248Z,10.13
2019-05-19T00:50:44.924Z,10.17
2019-05-19T00:53:15.464Z,10.00
2019-05-19T00:55:46.022Z,10.30
2019-05-19T00:58:16.386Z,10.30
2019-05-19T01:00:47.707Z,10.80
2019-05-19T01:03:19.923Z,10.77
2019-05-19T01:05:54.736Z,11.53
2019-05-19T01:08:26.560Z,10.70
2019-05-19T01:10:57.103Z,10.40
2019-05-19T01:13:27.553Z,9.53
2019-05-19T01:15:57.928Z,10.67
2019-05-19T01:18:28.224Z,10.45
2019-05-19T01:20:59.295Z,10.00
2019-05-19T01:23:29.555Z,11.47
2019-05-19T01:26:01.751Z,10.27
2019-05-19T01:28:33.028Z,10.80
2019-05-19T01:31:03.348Z,10.40
2019-05-19T01:33:34.458Z,10.70
2019-05-19T01:36:04.694Z,10.40
2019-05-19T01:38:35.188Z,10.32
2019-05-19T01:41:08.346Z,11.10
2019-05-19T01:43:39.730Z,11.07
2019-05-19T01:46:10.001Z,10.40
2019-05-19T01:48:40.281Z,10.90
2019-05-19T01:51:11.520Z,10.90
2019-05-19T01:53:42.756Z,10.57
2019-05-19T01:56:13.801Z,10.85
2019-05-19T01:58:44.041Z,11.65
2019-05-19T02:01:15.123Z,11.73
2019-05-19T02:03:45.359Z,12.23
2019-05-19T02:06:16.536Z,11.70
2019-05-19T02:08:47.101Z,11.75
2019-05-19T02:11:18.340Z,12.67
2019-05-19T02:13:48.725Z,12.33
2019-05-19T02:16:19.924Z,11.78
2019-05-19T02:18:50.398Z,12.50
2019-05-19T02:21:21.487Z,11.57
2019-05-19T02:23:52.551Z,12.50
2019-05-19T02:26:25.517Z,12.77
2019-05-19T02:28:55.991Z,12.13
2019-05-19T02:31:26.260Z,12.37
2019-05-19T02:33:59.612Z,12.80
2019-05-19T02:36:30.108Z,11.43
2019-05-19T02:39:00.327Z,12.40
2019-05-19T02:41:32.813Z,13.03
2019-05-19T02:44:03.736Z,12.07
2019-05-19T02:46:34.717Z,13.40
2019-05-19T02:49:06.011Z,12.90
2019-05-19T02:51:38.745Z,14.40
2019-05-19T02:54:09.850Z,13.97
2019-05-19T02:56:40.374Z,14.13
2019-05-19T02:59:11.020Z,13.47
2019-05-19T03:02:01.892Z,14.83
2019-05-19T03:04:33.124Z,13.00
2019-05-19T03:07:03.455Z,13.87
2019-05-19T03:09:34.848Z,13.70
2019-05-19T03:12:08.137Z,13.73
2019-05-19T03:14:38.447Z,12.70
2019-05-19T03:17:09.824Z,13.03
2019-05-19T03:19:40.153Z,12.83
2019-05-19T03:22:10.497Z,13.70
2019-05-19T03:24:40.984Z,14.33
2019-05-19T03:27:12.648Z,12.90
2019-05-19T03:29:48.450Z,13.73
2019-05-19T03:32:38.642Z,13.70
2019-05-19T03:35:10.600Z,13.33
2019-05-19T03:37:41.676Z,13.33
2019-05-19T03:40:21.587Z,13.57
2019-05-19T03:42:52.213Z,13.25
2019-05-19T03:45:24.327Z,11.97
2019-05-19T03:47:54.679Z,13.03
2019-05-19T03:50:25.105Z,12.07
2019-05-19T03:52:56.465Z,13.13
2019-05-19T03:55:26.743Z,12.77
2019-05-19T03:57:57.139Z,11.87
2019-05-19T04:00:28.315Z,12.73
2019-05-19T04:02:59.386Z,14.67
2019-05-19T04:05:30.358Z,14.33
2019-05-19T04:08:02.331Z,12.73
2019-05-19T04:10:33.743Z,13.37
2019-05-19T04:13:04.964Z,12.75
2019-05-19T04:15:38.016Z,13.30
2019-05-19T04:18:08.246Z,13.08
2019-05-19T04:20:39.313Z,12.20
2019-05-19T04:23:09.689Z,13.53
2019-05-19T04:25:40.226Z,13.43
2019-05-19T04:28:14.242Z,12.63
2019-05-19T04:30:44.496Z,13.23
2019-05-19T04:33:15.627Z,12.80
2019-05-19T04:35:45.859Z,12.10
2019-05-19T04:38:16.201Z,12.33
2019-05-19T04:40:46.458Z,12.07
2019-05-19T04:43:16.796Z,12.50
2019-05-19T04:45:47.281Z,12.93
2019-05-19T14:01:51.307Z,65.62
2019-05-19T14:04:22.493Z,66.53
2019-05-19T14:07:25.002Z,67.67
2019-05-19T14:10:21.456Z,58.97
2019-05-19T14:13:22.796Z,62.93
2019-05-19T14:16:19.281Z,60.67
2019-05-19T14:19:17.371Z,66.60
2019-05-19T14:22:14.582Z,59.80
2019-05-19T14:25:10.601Z,65.60
2019-05-19T14:28:07.631Z,64.07
2019-05-19T14:32:57.758Z,70.20
2019-05-19T14:35:31.084Z,69.90
2019-05-19T14:38:03.036Z,76.30
2019-05-19T14:40:33.515Z,74.10
2019-05-19T14:43:04.262Z,76.30
2019-05-19T14:45:38.686Z,68.20
2019-05-19T14:48:09.165Z,71.20
2019-05-19T14:50:39.430Z,73.42
2019-05-19T14:53:10.595Z,116.63
2019-05-19T14:55:40.971Z,71.82
2019-05-19T14:58:12.139Z,71.77
2019-05-19T15:00:42.645Z,70.33
2019-05-19T15:03:13.700Z,82.13
2019-05-19T15:05:44.006Z,68.67
2019-05-19T15:08:17.570Z,69.63
2019-05-19T15:10:48.806Z,70.87
2019-05-19T15:13:19.299Z,83.17
2019-05-19T15:15:49.709Z,85.28
2019-05-19T15:18:20.231Z,83.10
2019-05-19T15:20:57.042Z,79.60
2019-05-19T15:23:27.700Z,65.23
2019-05-19T15:25:58.026Z,73.55
2019-05-19T15:28:28.447Z,62.48
2019-05-19T15:30:58.929Z,55.67
2019-05-19T15:33:37.658Z,67.40
2019-05-19T15:36:03.363Z,58.15
2019-05-19T15:38:34.199Z,57.53
2019-05-19T15:41:04.644Z,61.13
2019-05-19T15:43:35.871Z,58.25
2019-05-19T15:46:06.677Z,57.03
2019-05-19T15:48:39.642Z,59.53
2019-05-19T15:51:10.958Z,59.58
2019-05-19T15:53:41.393Z,61.77
2019-05-19T15:56:11.970Z,57.80
2019-05-19T15:58:43.496Z,56.73
2019-05-19T16:01:13.908Z,66.20
2019-05-19T16:03:44.456Z,65.87
2019-05-19T16:06:16.557Z,67.27
2019-05-19T16:08:46.753Z,54.37
2019-05-19T16:11:17.006Z,51.80
2019-05-19T16:13:47.658Z,49.67
2019-05-19T16:16:20.216Z,46.90
2019-05-19T16:18:54.541Z,46.63
2019-05-19T16:21:27.146Z,47.13
2019-05-19T16:23:58.365Z,46.07
2019-05-19T16:26:31.745Z,47.78
2019-05-19T16:29:22.517Z,44.05
2019-05-19T16:31:53.108Z,46.20
2019-05-19T16:34:25.322Z,43.80
2019-05-19T16:36:56.627Z,44.37
2019-05-19T16:39:26.978Z,44.87
2019-05-19T16:41:57.310Z,43.37
2019-05-19T16:44:27.961Z,41.13
2019-05-19T16:46:59.149Z,39.07
2019-05-19T16:49:29.415Z,38.43
2019-05-19T16:51:59.742Z,41.57
2019-05-19T16:54:35.030Z,39.30
2019-05-19T16:57:06.524Z,53.83
2019-05-19T16:59:37.099Z,35.93
2019-05-19T17:02:10.390Z,31.90
2019-05-19T17:04:40.811Z,35.40
2019-05-19T17:07:12.087Z,31.35
2019-05-19T17:09:44.471Z,30.67
2019-05-19T17:12:14.723Z,30.37
2019-05-19T17:14:45.144Z,30.17
2019-05-19T17:17:16.209Z,28.25
2019-05-19T17:19:46.577Z,26.33
2019-05-19T17:22:16.977Z,26.33
2019-05-19T17:24:47.397Z,26.87
2019-05-19T17:27:17.622Z,26.40
2019-05-19T17:29:47.855Z,23.93
2019-05-19T17:32:19.627Z,23.02
2019-05-19T17:34:50.342Z,29.07
2019-05-19T17:37:20.577Z,21.00
2019-05-19T17:39:50.800Z,23.05
2019-05-19T17:42:21.162Z,21.70
2019-05-19T17:44:51.536Z,21.27
2019-05-19T17:47:21.857Z,22.50
2019-05-19T17:49:52.147Z,19.33
2019-05-19T17:52:22.614Z,19.37
2019-05-19T17:54:52.951Z,17.67
2019-05-19T17:57:23.653Z,26.83
2019-05-19T17:59:54.911Z,18.00
2019-05-19T18:02:25.256Z,18.13
2019-05-19T18:04:55.494Z,16.77
2019-05-19T18:07:25.720Z,28.73
2019-05-19T18:09:56.038Z,18.70
2019-05-19T18:12:26.479Z,16.03
2019-05-19T18:14:56.871Z,24.63
2019-05-19T18:17:27.211Z,15.80
2019-05-19T18:19:57.750Z,17.63
2019-05-19T18:22:28.146Z,13.58
2019-05-19T18:24:58.479Z,14.27
2019-05-19T18:27:29.504Z,13.63
2019-05-19T18:30:00.006Z,13.47
2019-05-19T18:32:30.355Z,13.43
2019-05-19T18:35:01.528Z,13.00
2019-05-19T18:37:32.005Z,27.37
2019-05-19T18:40:04.179Z,13.37
2019-05-19T18:42:34.593Z,16.70
2019-05-19T18:45:05.817Z,13.37
2019-05-19T18:47:36.203Z,14.28
2019-05-19T18:50:06.909Z,12.50
2019-05-19T18:52:37.246Z,10.83
2019-05-19T18:55:07.824Z,11.03
2019-05-19T18:57:39.464Z,13.63
2019-05-19T19:00:09.879Z,10.97
2019-05-19T19:02:40.386Z,10.80
2019-05-19T19:05:10.818Z,10.43
2019-05-19T19:07:52.708Z,9.70
2019-05-19T19:10:23.237Z,11.07
2019-05-19T19:12:53.598Z,10.50
2019-05-19T19:15:24.777Z,10.60
2019-05-19T19:17:55.142Z,9.30
2019-05-19T19:20:25.612Z,10.37
2019-05-19T19:22:55.990Z,10.13
2019-05-19T19:25:26.406Z,11.00
2019-05-19T19:27:57.757Z,11.83
2019-05-19T19:30:28.953Z,10.30
2019-05-19T19:33:00.091Z,9.13
2019-05-19T19:35:39.107Z,8.60
2019-05-19T19:38:04.907Z,8.47
2019-05-19T19:40:35.831Z,7.95
2019-05-19T19:43:06.350Z,7.30
2019-05-19T19:45:37.687Z,7.30
2019-05-19T19:48:08.994Z,7.80
2019-05-19T19:50:39.673Z,7.25
2019-05-19T19:53:10.027Z,7.47
2019-05-19T19:55:40.273Z,7.33
2019-05-19T19:58:10.626Z,6.77
2019-05-19T20:00:43.305Z,6.80
2019-05-19T20:03:13.750Z,7.27
2019-05-19T20:05:44.934Z,7.10
2019-05-19T20:08:15.967Z,7.47
2019-05-19T20:10:47.951Z,7.40
2019-05-19T20:13:19.039Z,7.17
2019-05-19T20:15:50.017Z,7.70
2019-05-19T20:18:21.772Z,8.07
2019-05-19T20:20:53.568Z,7.40
2019-05-19T20:23:24.469Z,7.73
2019-05-19T20:25:55.338Z,8.10
2019-05-19T20:28:27.981Z,8.37
